sensor_id;sensor_type;location;lat;lon;timestamp;P1;P2;P0
70436;PMS5003;57877;39.750;-104.894;2023-01-28T00:02:12;0;0;
70436;PMS5003;57877;39.750;-104.894;2023-01-28T00:04:38;0;0;
70436;PMS5003;57877;39.750;-104.894;2023-01-28T00:07:04;0;0;
70436;PMS5003;57877;39.750;-104.894;2023-01-28T00:09:30;0;0;
70436;PMS5003;57877;39.750;-104.894;2023-01-28T00:11:56;0;0;
70436;PMS5003;57877;39.750;-104.894;2023-01-28T00:14:22;0;0;
70436;PMS5003;57877;39.750;-104.894;2023-01-28T00:16:48;0;0;
70436;PMS5003;57877;39.750;-104.894;2023-01-28T00:19:14;0;0;
70436;PMS5003;57877;39.750;-104.894;2023-01-28T00:21:40;0;0;
70436;PMS5003;57877;39.750;-104.894;2023-01-28T00:24:06;0;0;
70436;PMS5003;57877;39.750;-104.894;2023-01-28T00:26:32;0;0;
70436;PMS5003;57877;39.750;-104.894;2023-01-28T00:28:58;0;0;
70436;PMS5003;57877;39.750;-104.894;2023-01-28T00:31:24;0;0;
70436;PMS5003;57877;39.750;-104.894;2023-01-28T00:33:50;0;0;
70436;PMS5003;57877;39.750;-104.894;2023-01-28T00:36:16;0;0;
70436;PMS5003;57877;39.750;-104.894;2023-01-28T00:38:42;0;0;
70436;PMS5003;57877;39.750;-104.894;2023-01-28T00:41:09;0;0;
70436;PMS5003;57877;39.750;-104.894;2023-01-28T00:43:34;0;0;
70436;PMS5003;57877;39.750;-104.894;2023-01-28T00:46:00;0;0;
70436;PMS5003;57877;39.750;-104.894;2023-01-28T00:48:26;0;0;
70436;PMS5003;57877;39.750;-104.894;2023-01-28T00:50:52;0;0;
70436;PMS5003;57877;39.750;-104.894;2023-01-28T00:53:18;0;0;
70436;PMS5003;57877;39.750;-104.894;2023-01-28T00:55:44;0;0;
70436;PMS5003;57877;39.750;-104.894;2023-01-28T00:58:10;0;0;
70436;PMS5003;57877;39.750;-104.894;2023-01-28T01:00:36;0;0;
70436;PMS5003;57877;39.750;-104.894;2023-01-28T01:03:02;0;0;
70436;PMS5003;57877;39.750;-104.894;2023-01-28T01:05:28;0;0;
70436;PMS5003;57877;39.750;-104.894;2023-01-28T01:07:54;0;0;
70436;PMS5003;57877;39.750;-104.894;2023-01-28T01:10:20;0;0;
70436;PMS5003;57877;39.750;-104.894;2023-01-28T01:12:46;0;0;
70436;PMS5003;57877;39.750;-104.894;2023-01-28T01:15:12;0;0;
70436;PMS5003;57877;39.750;-104.894;2023-01-28T01:17:39;0;0;
70436;PMS5003;57877;39.750;-104.894;2023-01-28T01:20:05;0;0;
70436;PMS5003;57877;39.750;-104.894;2023-01-28T01:22:31;0;0;
70436;PMS5003;57877;39.750;-104.894;2023-01-28T01:24:55;0;0;
70436;PMS5003;57877;39.750;-104.894;2023-01-28T01:27:20;0;0;
70436;PMS5003;57877;39.750;-104.894;2023-01-28T01:29:46;0;0;
70436;PMS5003;57877;39.750;-104.894;2023-01-28T01:32:12;0;0;
70436;PMS5003;57877;39.750;-104.894;2023-01-28T01:34:38;0;0;
70436;PMS5003;57877;39.750;-104.894;2023-01-28T01:37:04;0;0;
70436;PMS5003;57877;39.750;-104.894;2023-01-28T01:39:30;0;0;
70436;PMS5003;57877;39.750;-104.894;2023-01-28T01:41:56;0;0;
70436;PMS5003;57877;39.750;-104.894;2023-01-28T01:46:48;0;0;
70436;PMS5003;57877;39.750;-104.894;2023-01-28T01:49:15;0;0;
70436;PMS5003;57877;39.750;-104.894;2023-01-28T01:51:40;0;0;
70436;PMS5003;57877;39.750;-104.894;2023-01-28T01:54:06;1;0;
70436;PMS5003;57877;39.750;-104.894;2023-01-28T01:56:32;0;0;
70436;PMS5003;57877;39.750;-104.894;2023-01-28T01:58:57;0;0;
70436;PMS5003;57877;39.750;-104.894;2023-01-28T02:01:23;0;0;
70436;PMS5003;57877;39.750;-104.894;2023-01-28T02:03:51;1;0;
70436;PMS5003;57877;39.750;-104.894;2023-01-28T02:06:13;0;0;
70436;PMS5003;57877;39.750;-104.894;2023-01-28T02:08:39;0;0;
70436;PMS5003;57877;39.750;-104.894;2023-01-28T02:11:06;0;0;
70436;PMS5003;57877;39.750;-104.894;2023-01-28T02:13:32;1;0;
70436;PMS5003;57877;39.750;-104.894;2023-01-28T02:15:57;0;0;
70436;PMS5003;57877;39.750;-104.894;2023-01-28T02:18:24;0;0;
70436;PMS5003;57877;39.750;-104.894;2023-01-28T02:25:48;0;0;
70436;PMS5003;57877;39.750;-104.894;2023-01-28T02:28:11;0;0;
70436;PMS5003;57877;39.750;-104.894;2023-01-28T02:30:35;0;0;
70436;PMS5003;57877;39.750;-104.894;2023-01-28T02:33:01;0;0;
70436;PMS5003;57877;39.750;-104.894;2023-01-28T02:35:27;0;0;
70436;PMS5003;57877;39.750;-104.894;2023-01-28T02:37:52;0;0;
70436;PMS5003;57877;39.750;-104.894;2023-01-28T02:40:17;0;0;
70436;PMS5003;57877;39.750;-104.894;2023-01-28T02:42:42;0;0;
70436;PMS5003;57877;39.750;-104.894;2023-01-28T02:45:14;0;0;
70436;PMS5003;57877;39.750;-104.894;2023-01-28T02:47:34;0;0;
70436;PMS5003;57877;39.750;-104.894;2023-01-28T02:49:59;0;0;
70436;PMS5003;57877;39.750;-104.894;2023-01-28T02:52:27;0;0;
70436;PMS5003;57877;39.750;-104.894;2023-01-28T02:54:51;0;0;
70436;PMS5003;57877;39.750;-104.894;2023-01-28T02:57:17;0;0;
70436;PMS5003;57877;39.750;-104.894;2023-01-28T02:59:41;0;0;
70436;PMS5003;57877;39.750;-104.894;2023-01-28T03:02:09;0;0;
70436;PMS5003;57877;39.750;-104.894;2023-01-28T03:04:32;0;0;
70436;PMS5003;57877;39.750;-104.894;2023-01-28T03:06:59;0;0;
70436;PMS5003;57877;39.750;-104.894;2023-01-28T03:09:23;0;0;
70436;PMS5003;57877;39.750;-104.894;2023-01-28T03:11:49;0;0;
70436;PMS5003;57877;39.750;-104.894;2023-01-28T03:14:14;0;0;
70436;PMS5003;57877;39.750;-104.894;2023-01-28T03:16:40;0;0;
70436;PMS5003;57877;39.750;-104.894;2023-01-28T03:19:06;0;0;
70436;PMS5003;57877;39.750;-104.894;2023-01-28T03:21:33;0;0;
70436;PMS5003;57877;39.750;-104.894;2023-01-28T03:23:59;0;0;
70436;PMS5003;57877;39.750;-104.894;2023-01-28T03:26:24;0;0;
70436;PMS5003;57877;39.750;-104.894;2023-01-28T03:28:50;0;0;
70436;PMS5003;57877;39.750;-104.894;2023-01-28T03:31:16;0;0;
70436;PMS5003;57877;39.750;-104.894;2023-01-28T03:33:42;0;0;
70436;PMS5003;57877;39.750;-104.894;2023-01-28T03:36:08;0;0;
70436;PMS5003;57877;39.750;-104.894;2023-01-28T03:38:33;0;0;
70436;PMS5003;57877;39.750;-104.894;2023-01-28T03:40:58;0;0;
70436;PMS5003;57877;39.750;-104.894;2023-01-28T03:43:24;0;0;
70436;PMS5003;57877;39.750;-104.894;2023-01-28T03:45:49;0;0;
70436;PMS5003;57877;39.750;-104.894;2023-01-28T03:48:14;0;0;
70436;PMS5003;57877;39.750;-104.894;2023-01-28T03:50:40;0;0;
70436;PMS5003;57877;39.750;-104.894;2023-01-28T03:53:05;0;0;
70436;PMS5003;57877;39.750;-104.894;2023-01-28T03:55:30;0;0;
70436;PMS5003;57877;39.750;-104.894;2023-01-28T03:57:56;0;0;
70436;PMS5003;57877;39.750;-104.894;2023-01-28T04:00:21;0;0;
70436;PMS5003;57877;39.750;-104.894;2023-01-28T04:02:46;0;0;
70436;PMS5003;57877;39.750;-104.894;2023-01-28T04:05:12;0;0;
70436;PMS5003;57877;39.750;-104.894;2023-01-28T04:07:37;0;0;
70436;PMS5003;57877;39.750;-104.894;2023-01-28T04:10:02;0;0;
70436;PMS5003;57877;39.750;-104.894;2023-01-28T04:12:27;0;0;
70436;PMS5003;57877;39.750;-104.894;2023-01-28T04:14:52;0;0;
70436;PMS5003;57877;39.750;-104.894;2023-01-28T04:17:17;0;0;
70436;PMS5003;57877;39.750;-104.894;2023-01-28T04:19:42;0;0;
70436;PMS5003;57877;39.750;-104.894;2023-01-28T04:22:09;0;0;
70436;PMS5003;57877;39.750;-104.894;2023-01-28T04:24:32;0;0;
70436;PMS5003;57877;39.750;-104.894;2023-01-28T04:26:58;0;0;
70436;PMS5003;57877;39.750;-104.894;2023-01-28T04:29:24;0;0;
70436;PMS5003;57877;39.750;-104.894;2023-01-28T04:31:49;0;0;
70436;PMS5003;57877;39.750;-104.894;2023-01-28T04:34:14;0;0;
70436;PMS5003;57877;39.750;-104.894;2023-01-28T04:36:39;0;0;
70436;PMS5003;57877;39.750;-104.894;2023-01-28T04:39:05;0;0;
70436;PMS5003;57877;39.750;-104.894;2023-01-28T04:41:30;0;0;
70436;PMS5003;57877;39.750;-104.894;2023-01-28T04:43:55;0;0;
70436;PMS5003;57877;39.750;-104.894;2023-01-28T04:46:20;0;0;
70436;PMS5003;57877;39.750;-104.894;2023-01-28T04:48:45;0;0;
70436;PMS5003;57877;39.750;-104.894;2023-01-28T04:51:10;0;0;
70436;PMS5003;57877;39.750;-104.894;2023-01-28T04:53:35;0;0;
70436;PMS5003;57877;39.750;-104.894;2023-01-28T04:56:00;0;0;
70436;PMS5003;57877;39.750;-104.894;2023-01-28T04:58:25;0;0;
70436;PMS5003;57877;39.750;-104.894;2023-01-28T05:00:52;0;0;
70436;PMS5003;57877;39.750;-104.894;2023-01-28T05:03:15;0;0;
70436;PMS5003;57877;39.750;-104.894;2023-01-28T05:05:40;0;0;
70436;PMS5003;57877;39.750;-104.894;2023-01-28T05:08:05;0;0;
70436;PMS5003;57877;39.750;-104.894;2023-01-28T05:10:30;0;0;
70436;PMS5003;57877;39.750;-104.894;2023-01-28T05:12:55;0;0;
70436;PMS5003;57877;39.750;-104.894;2023-01-28T05:15:20;0;0;
70436;PMS5003;57877;39.750;-104.894;2023-01-28T05:17:45;0;0;
70436;PMS5003;57877;39.750;-104.894;2023-01-28T05:20:11;0;0;
70436;PMS5003;57877;39.750;-104.894;2023-01-28T05:22:35;0;0;
70436;PMS5003;57877;39.750;-104.894;2023-01-28T05:25:00;0;0;
70436;PMS5003;57877;39.750;-104.894;2023-01-28T05:27:25;1;1;
70436;PMS5003;57877;39.750;-104.894;2023-01-28T05:29:50;0;0;
70436;PMS5003;57877;39.750;-104.894;2023-01-28T05:32:15;0;0;
70436;PMS5003;57877;39.750;-104.894;2023-01-28T05:34:40;0;0;
70436;PMS5003;57877;39.750;-104.894;2023-01-28T05:37:05;0;0;
70436;PMS5003;57877;39.750;-104.894;2023-01-28T05:39:31;0;0;
70436;PMS5003;57877;39.750;-104.894;2023-01-28T05:41:56;0;0;
70436;PMS5003;57877;39.750;-104.894;2023-01-28T05:44:22;0;0;
70436;PMS5003;57877;39.750;-104.894;2023-01-28T05:46:48;0;0;
70436;PMS5003;57877;39.750;-104.894;2023-01-28T05:49:14;0;0;
70436;PMS5003;57877;39.750;-104.894;2023-01-28T05:51:40;0;0;
70436;PMS5003;57877;39.750;-104.894;2023-01-28T05:54:06;0;0;
70436;PMS5003;57877;39.750;-104.894;2023-01-28T05:56:32;0;0;
70436;PMS5003;57877;39.750;-104.894;2023-01-28T05:58:58;0;0;
70436;PMS5003;57877;39.750;-104.894;2023-01-28T06:01:24;0;0;
70436;PMS5003;57877;39.750;-104.894;2023-01-28T06:03:50;0;0;
70436;PMS5003;57877;39.750;-104.894;2023-01-28T06:06:15;0;0;
70436;PMS5003;57877;39.750;-104.894;2023-01-28T06:08:41;0;0;
70436;PMS5003;57877;39.750;-104.894;2023-01-28T06:11:07;0;0;
70436;PMS5003;57877;39.750;-104.894;2023-01-28T06:13:33;0;0;
70436;PMS5003;57877;39.750;-104.894;2023-01-28T06:15:59;1;0;
70436;PMS5003;57877;39.750;-104.894;2023-01-28T06:18:25;0;0;
70436;PMS5003;57877;39.750;-104.894;2023-01-28T06:20:51;0;0;
70436;PMS5003;57877;39.750;-104.894;2023-01-28T06:23:16;0;0;
70436;PMS5003;57877;39.750;-104.894;2023-01-28T06:25:42;1;1;
70436;PMS5003;57877;39.750;-104.894;2023-01-28T06:28:07;2;1;
70436;PMS5003;57877;39.750;-104.894;2023-01-28T06:30:32;0;0;
70436;PMS5003;57877;39.750;-104.894;2023-01-28T06:32:58;0;0;
70436;PMS5003;57877;39.750;-104.894;2023-01-28T06:35:24;0;0;
70436;PMS5003;57877;39.750;-104.894;2023-01-28T06:37:50;0;0;
70436;PMS5003;57877;39.750;-104.894;2023-01-28T06:40:16;0;0;
70436;PMS5003;57877;39.750;-104.894;2023-01-28T06:42:41;2;0;
70436;PMS5003;57877;39.750;-104.894;2023-01-28T06:45:07;2;2;
70436;PMS5003;57877;39.750;-104.894;2023-01-28T06:47:33;2;2;
70436;PMS5003;57877;39.750;-104.894;2023-01-28T06:49:59;3;3;
70436;PMS5003;57877;39.750;-104.894;2023-01-28T06:52:25;1;1;
70436;PMS5003;57877;39.750;-104.894;2023-01-28T06:54:51;0;0;
70436;PMS5003;57877;39.750;-104.894;2023-01-28T06:57:16;2;2;
70436;PMS5003;57877;39.750;-104.894;2023-01-28T06:59:42;2;2;
70436;PMS5003;57877;39.750;-104.894;2023-01-28T07:02:08;1;1;
70436;PMS5003;57877;39.750;-104.894;2023-01-28T07:04:32;2;2;
70436;PMS5003;57877;39.750;-104.894;2023-01-28T07:06:58;0;0;
70436;PMS5003;57877;39.750;-104.894;2023-01-28T07:09:24;1;1;
70436;PMS5003;57877;39.750;-104.894;2023-01-28T07:11:50;0;0;
70436;PMS5003;57877;39.750;-104.894;2023-01-28T07:14:16;2;2;
70436;PMS5003;57877;39.750;-104.894;2023-01-28T07:16:42;0;0;
70436;PMS5003;57877;39.750;-104.894;2023-01-28T07:19:07;0;0;
70436;PMS5003;57877;39.750;-104.894;2023-01-28T07:21:32;1;0;
70436;PMS5003;57877;39.750;-104.894;2023-01-28T07:23:58;1;0;
70436;PMS5003;57877;39.750;-104.894;2023-01-28T07:26:24;0;0;
70436;PMS5003;57877;39.750;-104.894;2023-01-28T07:28:49;2;2;
70436;PMS5003;57877;39.750;-104.894;2023-01-28T07:31:15;0;0;
70436;PMS5003;57877;39.750;-104.894;2023-01-28T07:33:41;2;2;
70436;PMS5003;57877;39.750;-104.894;2023-01-28T07:36:07;2;1;
70436;PMS5003;57877;39.750;-104.894;2023-01-28T07:38:32;1;1;
70436;PMS5003;57877;39.750;-104.894;2023-01-28T07:40:57;2;2;
70436;PMS5003;57877;39.750;-104.894;2023-01-28T07:43:22;4;4;
70436;PMS5003;57877;39.750;-104.894;2023-01-28T07:45:47;3;3;
70436;PMS5003;57877;39.750;-104.894;2023-01-28T07:48:13;4;3;
70436;PMS5003;57877;39.750;-104.894;2023-01-28T07:50:39;3;3;
70436;PMS5003;57877;39.750;-104.894;2023-01-28T07:53:05;3;3;
70436;PMS5003;57877;39.750;-104.894;2023-01-28T07:55:30;3;3;
70436;PMS5003;57877;39.750;-104.894;2023-01-28T07:57:57;1;1;
70436;PMS5003;57877;39.750;-104.894;2023-01-28T08:00:22;3;3;
70436;PMS5003;57877;39.750;-104.894;2023-01-28T08:02:46;3;2;
70436;PMS5003;57877;39.750;-104.894;2023-01-28T08:05:11;2;2;
70436;PMS5003;57877;39.750;-104.894;2023-01-28T08:07:36;3;3;
70436;PMS5003;57877;39.750;-104.894;2023-01-28T08:10:01;3;3;
70436;PMS5003;57877;39.750;-104.894;2023-01-28T08:12:26;2;2;
70436;PMS5003;57877;39.750;-104.894;2023-01-28T08:14:51;4;3;
70436;PMS5003;57877;39.750;-104.894;2023-01-28T08:17:17;3;3;
70436;PMS5003;57877;39.750;-104.894;2023-01-28T08:19:43;2;2;
70436;PMS5003;57877;39.750;-104.894;2023-01-28T08:22:08;3;3;
70436;PMS5003;57877;39.750;-104.894;2023-01-28T08:24:34;4;4;
70436;PMS5003;57877;39.750;-104.894;2023-01-28T08:26:59;3;2;
70436;PMS5003;57877;39.750;-104.894;2023-01-28T08:29:24;3;3;
70436;PMS5003;57877;39.750;-104.894;2023-01-28T08:31:49;3;3;
70436;PMS5003;57877;39.750;-104.894;2023-01-28T08:34:14;4;4;
70436;PMS5003;57877;39.750;-104.894;2023-01-28T08:36:39;5;4;
70436;PMS5003;57877;39.750;-104.894;2023-01-28T08:39:04;4;4;
70436;PMS5003;57877;39.750;-104.894;2023-01-28T08:41:29;4;4;
70436;PMS5003;57877;39.750;-104.894;2023-01-28T08:43:54;4;4;
70436;PMS5003;57877;39.750;-104.894;2023-01-28T08:46:19;4;4;
70436;PMS5003;57877;39.750;-104.894;2023-01-28T08:48:44;4;4;
70436;PMS5003;57877;39.750;-104.894;2023-01-28T08:51:09;4;3;
70436;PMS5003;57877;39.750;-104.894;2023-01-28T08:53:34;2;2;
70436;PMS5003;57877;39.750;-104.894;2023-01-28T08:55:59;5;5;
70436;PMS5003;57877;39.750;-104.894;2023-01-28T08:58:25;4;4;
70436;PMS5003;57877;39.750;-104.894;2023-01-28T09:00:51;11;10;
70436;PMS5003;57877;39.750;-104.894;2023-01-28T09:03:17;7;7;
70436;PMS5003;57877;39.750;-104.894;2023-01-28T09:05:42;6;5;
70436;PMS5003;57877;39.750;-104.894;2023-01-28T09:08:09;3;3;
70436;PMS5003;57877;39.750;-104.894;2023-01-28T09:10:33;3;3;
70436;PMS5003;57877;39.750;-104.894;2023-01-28T09:13:02;0;0;
70436;PMS5003;57877;39.750;-104.894;2023-01-28T09:15:28;1;1;
70436;PMS5003;57877;39.750;-104.894;2023-01-28T09:17:48;0;0;
70436;PMS5003;57877;39.750;-104.894;2023-01-28T09:20:13;0;0;
70436;PMS5003;57877;39.750;-104.894;2023-01-28T09:22:38;0;0;
70436;PMS5003;57877;39.750;-104.894;2023-01-28T09:25:04;0;0;
70436;PMS5003;57877;39.750;-104.894;2023-01-28T09:27:28;0;0;
70436;PMS5003;57877;39.750;-104.894;2023-01-28T09:29:53;0;0;
70436;PMS5003;57877;39.750;-104.894;2023-01-28T09:32:18;0;0;
70436;PMS5003;57877;39.750;-104.894;2023-01-28T09:34:43;0;0;
70436;PMS5003;57877;39.750;-104.894;2023-01-28T09:37:08;0;0;
70436;PMS5003;57877;39.750;-104.894;2023-01-28T09:39:33;0;0;
70436;PMS5003;57877;39.750;-104.894;2023-01-28T09:42:03;0;0;
70436;PMS5003;57877;39.750;-104.894;2023-01-28T09:44:27;0;0;
70436;PMS5003;57877;39.750;-104.894;2023-01-28T09:46:49;0;0;
70436;PMS5003;57877;39.750;-104.894;2023-01-28T09:49:16;0;0;
70436;PMS5003;57877;39.750;-104.894;2023-01-28T09:51:39;0;0;
70436;PMS5003;57877;39.750;-104.894;2023-01-28T09:54:05;0;0;
70436;PMS5003;57877;39.750;-104.894;2023-01-28T09:56:29;0;0;
70436;PMS5003;57877;39.750;-104.894;2023-01-28T09:58:54;0;0;
70436;PMS5003;57877;39.750;-104.894;2023-01-28T10:01:26;0;0;
70436;PMS5003;57877;39.750;-104.894;2023-01-28T10:03:48;0;0;
70436;PMS5003;57877;39.750;-104.894;2023-01-28T10:06:13;0;0;
70436;PMS5003;57877;39.750;-104.894;2023-01-28T10:08:39;1;1;
70436;PMS5003;57877;39.750;-104.894;2023-01-28T10:11:01;0;0;
70436;PMS5003;57877;39.750;-104.894;2023-01-28T10:13:27;0;0;
70436;PMS5003;57877;39.750;-104.894;2023-01-28T10:15:53;1;0;
70436;PMS5003;57877;39.750;-104.894;2023-01-28T10:18:15;0;0;
70436;PMS5003;57877;39.750;-104.894;2023-01-28T10:20:41;2;2;
70436;PMS5003;57877;39.750;-104.894;2023-01-28T10:23:07;1;0;
70436;PMS5003;57877;39.750;-104.894;2023-01-28T10:25:30;1;0;
70436;PMS5003;57877;39.750;-104.894;2023-01-28T10:27:56;0;0;
70436;PMS5003;57877;39.750;-104.894;2023-01-28T10:30:22;1;1;
70436;PMS5003;57877;39.750;-104.894;2023-01-28T10:32:49;0;0;
70436;PMS5003;57877;39.750;-104.894;2023-01-28T10:35:12;1;1;
70436;PMS5003;57877;39.750;-104.894;2023-01-28T10:37:38;1;1;
70436;PMS5003;57877;39.750;-104.894;2023-01-28T10:40:04;0;0;
70436;PMS5003;57877;39.750;-104.894;2023-01-28T10:42:29;0;0;
70436;PMS5003;57877;39.750;-104.894;2023-01-28T10:44:54;0;0;
70436;PMS5003;57877;39.750;-104.894;2023-01-28T10:47:26;0;0;
70436;PMS5003;57877;39.750;-104.894;2023-01-28T10:49:45;0;0;
70436;PMS5003;57877;39.750;-104.894;2023-01-28T10:52:11;0;0;
70436;PMS5003;57877;39.750;-104.894;2023-01-28T10:54:34;0;0;
70436;PMS5003;57877;39.750;-104.894;2023-01-28T10:57:00;0;0;
70436;PMS5003;57877;39.750;-104.894;2023-01-28T10:59:25;0;0;
70436;PMS5003;57877;39.750;-104.894;2023-01-28T11:01:50;0;0;
70436;PMS5003;57877;39.750;-104.894;2023-01-28T11:04:16;0;0;
70436;PMS5003;57877;39.750;-104.894;2023-01-28T11:06:39;0;0;
70436;PMS5003;57877;39.750;-104.894;2023-01-28T11:11:29;0;0;
70436;PMS5003;57877;39.750;-104.894;2023-01-28T11:13:55;0;0;
70436;PMS5003;57877;39.750;-104.894;2023-01-28T11:16:20;0;0;
70436;PMS5003;57877;39.750;-104.894;2023-01-28T11:18:46;0;0;
70436;PMS5003;57877;39.750;-104.894;2023-01-28T11:21:13;0;0;
70436;PMS5003;57877;39.750;-104.894;2023-01-28T11:23:36;0;0;
70436;PMS5003;57877;39.750;-104.894;2023-01-28T11:26:02;0;0;
70436;PMS5003;57877;39.750;-104.894;2023-01-28T11:28:25;0;0;
70436;PMS5003;57877;39.750;-104.894;2023-01-28T11:30:51;0;0;
70436;PMS5003;57877;39.750;-104.894;2023-01-28T11:33:16;0;0;
70436;PMS5003;57877;39.750;-104.894;2023-01-28T11:35:41;0;0;
70436;PMS5003;57877;39.750;-104.894;2023-01-28T11:40:32;0;0;
70436;PMS5003;57877;39.750;-104.894;2023-01-28T11:42:57;0;0;
70436;PMS5003;57877;39.750;-104.894;2023-01-28T11:45:24;0;0;
70436;PMS5003;57877;39.750;-104.894;2023-01-28T11:47:49;0;0;
70436;PMS5003;57877;39.750;-104.894;2023-01-28T11:50:16;0;0;
70436;PMS5003;57877;39.750;-104.894;2023-01-28T11:52:40;0;0;
70436;PMS5003;57877;39.750;-104.894;2023-01-28T11:55:06;0;0;
70436;PMS5003;57877;39.750;-104.894;2023-01-28T11:57:30;0;0;
70436;PMS5003;57877;39.750;-104.894;2023-01-28T12:00:01;0;0;
70436;PMS5003;57877;39.750;-104.894;2023-01-28T12:02:22;0;0;
70436;PMS5003;57877;39.750;-104.894;2023-01-28T12:04:47;0;0;
70436;PMS5003;57877;39.750;-104.894;2023-01-28T12:07:13;0;0;
70436;PMS5003;57877;39.750;-104.894;2023-01-28T12:09:34;0;0;
70436;PMS5003;57877;39.750;-104.894;2023-01-28T12:12:02;0;0;
70436;PMS5003;57877;39.750;-104.894;2023-01-28T12:14:25;0;0;
70436;PMS5003;57877;39.750;-104.894;2023-01-28T12:16:51;0;0;
70436;PMS5003;57877;39.750;-104.894;2023-01-28T12:19:19;0;0;
70436;PMS5003;57877;39.750;-104.894;2023-01-28T12:21:43;0;0;
70436;PMS5003;57877;39.750;-104.894;2023-01-28T12:24:08;0;0;
70436;PMS5003;57877;39.750;-104.894;2023-01-28T12:26:32;0;0;
70436;PMS5003;57877;39.750;-104.894;2023-01-28T12:28:58;0;0;
70436;PMS5003;57877;39.750;-104.894;2023-01-28T12:33:49;0;0;
70436;PMS5003;57877;39.750;-104.894;2023-01-28T12:36:12;0;0;
70436;PMS5003;57877;39.750;-104.894;2023-01-28T12:38:38;0;0;
70436;PMS5003;57877;39.750;-104.894;2023-01-28T12:41:01;0;0;
70436;PMS5003;57877;39.750;-104.894;2023-01-28T12:43:28;0;0;
70436;PMS5003;57877;39.750;-104.894;2023-01-28T12:45:52;0;0;
70436;PMS5003;57877;39.750;-104.894;2023-01-28T12:48:17;0;0;
70436;PMS5003;57877;39.750;-104.894;2023-01-28T12:50:41;0;0;
70436;PMS5003;57877;39.750;-104.894;2023-01-28T12:53:16;0;0;
70436;PMS5003;57877;39.750;-104.894;2023-01-28T12:55:36;0;0;
70436;PMS5003;57877;39.750;-104.894;2023-01-28T12:57:55;0;0;
70436;PMS5003;57877;39.750;-104.894;2023-01-28T13:00:22;0;0;
70436;PMS5003;57877;39.750;-104.894;2023-01-28T13:02:48;0;0;
70436;PMS5003;57877;39.750;-104.894;2023-01-28T13:05:11;0;0;
70436;PMS5003;57877;39.750;-104.894;2023-01-28T13:07:37;0;0;
70436;PMS5003;57877;39.750;-104.894;2023-01-28T13:10:02;0;0;
70436;PMS5003;57877;39.750;-104.894;2023-01-28T13:12:26;0;0;
70436;PMS5003;57877;39.750;-104.894;2023-01-28T13:14:51;0;0;
70436;PMS5003;57877;39.750;-104.894;2023-01-28T13:19:41;0;0;
70436;PMS5003;57877;39.750;-104.894;2023-01-28T13:22:10;0;0;
70436;PMS5003;57877;39.750;-104.894;2023-01-28T13:24:31;0;0;
70436;PMS5003;57877;39.750;-104.894;2023-01-28T13:26:56;0;0;
70436;PMS5003;57877;39.750;-104.894;2023-01-28T13:31:47;0;0;
70436;PMS5003;57877;39.750;-104.894;2023-01-28T13:34:26;0;0;
70436;PMS5003;57877;39.750;-104.894;2023-01-28T13:36:37;0;0;
70436;PMS5003;57877;39.750;-104.894;2023-01-28T13:39:03;0;0;
70436;PMS5003;57877;39.750;-104.894;2023-01-28T13:43:51;0;0;
70436;PMS5003;57877;39.750;-104.894;2023-01-28T13:48:43;0;0;
70436;PMS5003;57877;39.750;-104.894;2023-01-28T13:51:09;0;0;
70436;PMS5003;57877;39.750;-104.894;2023-01-28T13:53:36;0;0;
70436;PMS5003;57877;39.750;-104.894;2023-01-28T13:55:57;0;0;
70436;PMS5003;57877;39.750;-104.894;2023-01-28T14:05:45;0;0;
70436;PMS5003;57877;39.750;-104.894;2023-01-28T14:12:57;0;0;
70436;PMS5003;57877;39.750;-104.894;2023-01-28T14:17:43;0;0;
70436;PMS5003;57877;39.750;-104.894;2023-01-28T14:20:09;0;0;
70436;PMS5003;57877;39.750;-104.894;2023-01-28T14:22:32;0;0;
70436;PMS5003;57877;39.750;-104.894;2023-01-28T14:24:58;0;0;
70436;PMS5003;57877;39.750;-104.894;2023-01-28T14:27:23;0;0;
70436;PMS5003;57877;39.750;-104.894;2023-01-28T14:29:50;0;0;
70436;PMS5003;57877;39.750;-104.894;2023-01-28T14:32:14;0;0;
70436;PMS5003;57877;39.750;-104.894;2023-01-28T14:34:38;0;0;
70436;PMS5003;57877;39.750;-104.894;2023-01-28T14:37:04;0;0;
70436;PMS5003;57877;39.750;-104.894;2023-01-28T14:39:29;0;0;
70436;PMS5003;57877;39.750;-104.894;2023-01-28T14:41:53;0;0;
70436;PMS5003;57877;39.750;-104.894;2023-01-28T14:44:22;0;0;
70436;PMS5003;57877;39.750;-104.894;2023-01-28T14:46:44;0;0;
70436;PMS5003;57877;39.750;-104.894;2023-01-28T14:49:18;0;0;
70436;PMS5003;57877;39.750;-104.894;2023-01-28T14:56:27;0;0;
70436;PMS5003;57877;39.750;-104.894;2023-01-28T14:58:49;0;0;
70436;PMS5003;57877;39.750;-104.894;2023-01-28T15:03:43;0;0;
70436;PMS5003;57877;39.750;-104.894;2023-01-28T15:06:04;0;0;
70436;PMS5003;57877;39.750;-104.894;2023-01-28T15:08:29;0;0;
70436;PMS5003;57877;39.750;-104.894;2023-01-28T15:10:54;0;0;
70436;PMS5003;57877;39.750;-104.894;2023-01-28T15:13:21;0;0;
70436;PMS5003;57877;39.750;-104.894;2023-01-28T15:15:45;0;0;
70436;PMS5003;57877;39.750;-104.894;2023-01-28T15:18:11;1;0;
70436;PMS5003;57877;39.750;-104.894;2023-01-28T15:20:34;0;0;
70436;PMS5003;57877;39.750;-104.894;2023-01-28T15:22:59;0;0;
70436;PMS5003;57877;39.750;-104.894;2023-01-28T15:25:25;0;0;
70436;PMS5003;57877;39.750;-104.894;2023-01-28T15:27:50;0;0;
70436;PMS5003;57877;39.750;-104.894;2023-01-28T15:30:19;1;0;
70436;PMS5003;57877;39.750;-104.894;2023-01-28T15:32:40;0;0;
70436;PMS5003;57877;39.750;-104.894;2023-01-28T15:35:06;0;0;
70436;PMS5003;57877;39.750;-104.894;2023-01-28T15:37:29;0;0;
70436;PMS5003;57877;39.750;-104.894;2023-01-28T15:42:20;0;0;
70436;PMS5003;57877;39.750;-104.894;2023-01-28T15:44:45;0;0;
70436;PMS5003;57877;39.750;-104.894;2023-01-28T15:47:13;0;0;
70436;PMS5003;57877;39.750;-104.894;2023-01-28T15:49:35;1;0;
70436;PMS5003;57877;39.750;-104.894;2023-01-28T15:52:01;0;0;
70436;PMS5003;57877;39.750;-104.894;2023-01-28T15:54:26;0;0;
70436;PMS5003;57877;39.750;-104.894;2023-01-28T15:56:51;0;0;
70436;PMS5003;57877;39.750;-104.894;2023-01-28T15:59:17;0;0;
70436;PMS5003;57877;39.750;-104.894;2023-01-28T16:01:41;1;0;
70436;PMS5003;57877;39.750;-104.894;2023-01-28T16:04:20;0;0;
70436;PMS5003;57877;39.750;-104.894;2023-01-28T16:06:32;0;0;
70436;PMS5003;57877;39.750;-104.894;2023-01-28T16:08:57;0;0;
70436;PMS5003;57877;39.750;-104.894;2023-01-28T16:11:23;0;0;
70436;PMS5003;57877;39.750;-104.894;2023-01-28T16:13:46;0;0;
70436;PMS5003;57877;39.750;-104.894;2023-01-28T16:16:11;0;0;
70436;PMS5003;57877;39.750;-104.894;2023-01-28T16:18:38;1;1;
70436;PMS5003;57877;39.750;-104.894;2023-01-28T16:21:02;2;2;
70436;PMS5003;57877;39.750;-104.894;2023-01-28T16:23:27;0;0;
70436;PMS5003;57877;39.750;-104.894;2023-01-28T16:28:17;1;0;
70436;PMS5003;57877;39.750;-104.894;2023-01-28T16:30:42;0;0;
70436;PMS5003;57877;39.750;-104.894;2023-01-28T16:35:32;0;0;
70436;PMS5003;57877;39.750;-104.894;2023-01-28T16:37:57;2;1;
70436;PMS5003;57877;39.750;-104.894;2023-01-28T16:40:22;0;0;
70436;PMS5003;57877;39.750;-104.894;2023-01-28T16:42:47;1;1;